Time,TemperatureF,DewpointF,PressureIn,WindDirection,WindDirectionDegrees,WindSpeedMPH,WindSpeedGustMPH,Humidity,HourlyPrecipIn,Conditions,Clouds,dailyrainin,SoftwareType,DateUTC
2013-01-23 00:05:00,-3.4,-10.2,30.17,NNE,30,6.0,7.0,72,0.00,,,0.00,Wunderground v.1.15,2013-01-23 05:05:00,
2013-01-23 00:10:00,-3.5,-10.6,30.17,ENE,59,6.0,7.0,71,0.00,,,0.00,Wunderground v.1.15,2013-01-23 05:10:00,
2013-01-23 00:15:00,-3.7,-11.0,30.17,NE,42,6.0,7.0,70,0.00,,,0.00,Wunderground v.1.15,2013-01-23 05:15:00,
2013-01-23 00:20:00,-3.9,-11.5,30.17,ENE,74,5.0,5.0,69,0.00,,,0.00,Wunderground v.1.15,2013-01-23 05:20:00,
2013-01-23 00:30:00,-4.0,-11.6,30.17,NE,45,5.0,5.0,69,0.00,,,0.00,Wunderground v.1.15,2013-01-23 05:30:00,
2013-01-23 00:35:00,-4.2,-11.8,30.17,NNE,32,5.0,11.0,69,0.00,,,0.00,Wunderground v.1.15,2013-01-23 05:35:00,
2013-01-23 00:40:00,-4.4,-12.0,30.17,ENE,69,5.0,11.0,69,0.00,,,0.00,Wunderground v.1.15,2013-01-23 05:40:00,
2013-01-23 00:45:00,-4.6,-12.2,30.18,NE,45,5.0,11.0,69,0.00,,,0.00,Wunderground v.1.15,2013-01-23 05:45:00,
2013-01-23 00:50:00,-4.7,-12.0,30.18,NE,45,5.0,5.0,70,0.00,,,0.00,Wunderground v.1.15,2013-01-23 05:50:00,
2013-01-23 01:00:00,-4.9,-12.2,30.18,NE,34,5.0,5.0,70,0.00,,,0.00,Wunderground v.1.15,2013-01-23 06:00:00,
2013-01-23 01:10:00,-5.0,-12.0,30.18,ENE,62,4.0,5.0,71,0.00,,,0.00,Wunderground v.1.15,2013-01-23 06:10:00,
2013-01-23 01:15:00,-5.1,-12.1,30.18,ENE,65,4.0,5.0,71,0.00,,,0.00,Wunderground v.1.15,2013-01-23 06:15:00,
2013-01-23 01:20:00,-5.3,-12.6,30.18,ENE,65,5.0,7.0,70,0.00,,,0.00,Wunderground v.1.15,2013-01-23 06:20:00,
2013-01-23 01:25:00,-5.4,-12.7,30.18,NE,55,5.0,7.0,70,0.00,,,0.00,Wunderground v.1.15,2013-01-23 06:25:00,
2013-01-23 01:34:00,-5.6,-12.9,30.18,NE,38,5.0,6.0,70,0.00,,,0.00,Wunderground v.1.15,2013-01-23 06:34:00,
2013-01-23 01:39:00,-5.6,-12.9,30.19,NE,37,4.0,11.0,70,0.00,,,0.00,Wunderground v.1.15,2013-01-23 06:39:00,
2013-01-23 01:44:00,-5.8,-13.1,30.19,NE,48,4.0,11.0,70,0.00,,,0.00,Wunderground v.1.15,2013-01-23 06:44:00,
2013-01-23 01:49:00,-6.0,-13.3,30.19,NE,45,4.0,4.0,70,0.00,,,0.00,Wunderground v.1.15,2013-01-23 06:49:00,
2013-01-23 01:54:00,-6.2,-13.4,30.19,NE,35,4.0,8.0,70,0.00,,,0.00,Wunderground v.1.15,2013-01-23 06:54:00,
2013-01-23 02:00:00,-6.3,-13.8,30.19,NE,44,4.0,4.0,69,0.00,,,0.00,Wunderground v.1.15,2013-01-23 07:00:00,
2013-01-23 02:10:00,-6.4,-13.9,30.20,NNE,24,5.0,5.0,69,0.00,,,0.00,Wunderground v.1.15,2013-01-23 07:10:00,
2013-01-23 02:15:00,-6.7,-15.1,30.20,NE,52,5.0,5.0,66,0.00,,,0.00,Wunderground v.1.15,2013-01-23 07:15:00,
2013-01-23 02:20:00,-6.9,-15.6,30.20,NE,44,6.0,6.0,65,0.00,,,0.00,Wunderground v.1.15,2013-01-23 07:20:00,
2013-01-23 02:25:00,-7.0,-15.7,30.20,NE,49,5.0,6.0,65,0.00,,,0.00,Wunderground v.1.15,2013-01-23 07:25:00,
2013-01-23 02:30:00,-7.1,-15.8,30.20,NNE,30,4.0,4.0,65,0.00,,,0.00,Wunderground v.1.15,2013-01-23 07:30:00,
2013-01-23 02:40:00,-7.5,-15.6,30.20,NE,49,6.0,6.0,67,0.00,,,0.00,Wunderground v.1.15,2013-01-23 07:40:00,
2013-01-23 02:45:00,-7.6,-15.7,30.20,NNE,32,5.0,8.0,67,0.00,,,0.00,Wunderground v.1.15,2013-01-23 07:45:00,
2013-01-23 02:50:00,-7.7,-15.5,30.20,NNE,30,4.0,8.0,68,0.00,,,0.00,Wunderground v.1.15,2013-01-23 07:50:00,
2013-01-23 02:54:00,-7.9,-15.4,30.20,NNE,23,4.0,8.0,69,0.00,,,0.00,Wunderground v.1.15,2013-01-23 07:54:00,
2013-01-23 03:00:00,-8.1,-15.6,30.20,NNE,24,5.0,5.0,69,0.00,,,0.00,Wunderground v.1.15,2013-01-23 08:00:00,
2013-01-23 03:09:00,-8.5,-16.2,30.20,NNE,27,7.0,7.0,68,0.00,,,0.00,Wunderground v.1.15,2013-01-23 08:09:00,
2013-01-23 03:14:00,-8.7,-16.4,30.20,NNE,31,7.0,8.0,68,0.00,,,0.00,Wunderground v.1.15,2013-01-23 08:14:00,
2013-01-23 03:19:00,-8.7,-16.4,30.20,NE,34,7.0,7.0,68,0.00,,,0.00,Wunderground v.1.15,2013-01-23 08:19:00,
2013-01-23 03:24:00,-8.8,-16.5,30.20,NNE,18,6.0,9.0,68,0.00,,,0.00,Wunderground v.1.15,2013-01-23 08:24:00,
2013-01-23 03:29:00,-9.0,-17.0,30.20,NNE,32,6.0,6.0,67,0.00,,,0.00,Wunderground v.1.15,2013-01-23 08:29:00,
2013-01-23 03:34:00,-9.1,-17.1,30.21,NNE,25,6.0,10.0,67,0.00,,,0.00,Wunderground v.1.15,2013-01-23 08:34:00,
2013-01-23 03:44:00,-9.3,-17.3,30.21,NE,35,5.0,10.0,67,0.00,,,0.00,Wunderground v.1.15,2013-01-23 08:44:00,
2013-01-23 03:49:00,-9.4,-17.1,30.21,NE,54,6.0,10.0,68,0.00,,,0.00,Wunderground v.1.15,2013-01-23 08:49:00,
2013-01-23 03:54:00,-9.4,-17.1,30.21,NE,39,6.0,10.0,68,0.00,,,0.00,Wunderground v.1.15,2013-01-23 08:54:00,
2013-01-23 04:00:00,-9.5,-17.2,30.21,NE,34,6.0,6.0,68,0.00,,,0.00,Wunderground v.1.15,2013-01-23 09:00:00,
2013-01-23 04:05:00,-9.5,-16.9,30.21,NNE,25,5.0,6.0,69,0.00,,,0.00,Wunderground v.1.15,2013-01-23 09:05:00,
2013-01-23 04:15:00,-9.7,-16.8,30.21,NNE,32,5.0,5.0,70,0.00,,,0.00,Wunderground v.1.15,2013-01-23 09:15:00,
2013-01-23 04:20:00,-9.8,-16.6,30.21,NNE,24,5.0,5.0,71,0.00,,,0.00,Wunderground v.1.15,2013-01-23 09:20:00,
2013-01-23 04:25:00,-9.8,-16.6,30.21,NE,34,5.0,5.0,71,0.00,,,0.00,Wunderground v.1.15,2013-01-23 09:25:00,
2013-01-23 04:34:00,-10.2,-17.0,30.21,NNE,17,5.0,12.0,71,0.00,,,0.00,Wunderground v.1.15,2013-01-23 09:34:00,
2013-01-23 04:39:00,-10.4,-17.2,30.21,North,11,6.0,12.0,71,0.00,,,0.00,Wunderground v.1.15,2013-01-23 09:39:00,
2013-01-23 04:45:00,-10.6,-17.4,30.21,NE,53,6.0,12.0,71,0.00,,,0.00,Wunderground v.1.15,2013-01-23 09:45:00,
2013-01-23 04:50:00,-10.7,-17.2,30.21,NNE,18,5.0,12.0,72,0.00,,,0.00,Wunderground v.1.15,2013-01-23 09:50:00,
2013-01-23 04:55:00,-10.7,-17.2,30.22,North,10,5.0,12.0,72,0.00,,,0.00,Wunderground v.1.15,2013-01-23 09:55:00,
2013-01-23 05:00:00,-10.8,-17.3,30.22,NNE,28,4.0,4.0,72,0.00,,,0.00,Wunderground v.1.15,2013-01-23 10:00:00,
2013-01-23 05:09:00,-10.7,-16.7,30.22,NNE,23,3.0,3.0,74,0.00,,,0.00,Wunderground v.1.15,2013-01-23 10:09:00,
2013-01-23 05:14:00,-10.7,-16.7,30.22,NNE,12,3.0,3.0,74,0.00,,,0.00,Wunderground v.1.15,2013-01-23 10:14:00,
2013-01-23 05:20:00,-10.8,-16.5,30.22,NNE,18,4.0,4.0,75,0.00,,,0.00,Wunderground v.1.15,2013-01-23 10:20:00,
2013-01-23 05:25:00,-10.9,-16.6,30.22,NE,40,4.0,4.0,75,0.00,,,0.00,Wunderground v.1.15,2013-01-23 10:25:00,
2013-01-23 05:30:00,-11.2,-16.9,30.23,NE,44,3.0,3.0,75,0.00,,,0.00,Wunderground v.1.15,2013-01-23 10:30:00,
2013-01-23 05:35:00,-11.2,-16.9,30.23,NE,46,3.0,4.0,75,0.00,,,0.00,Wunderground v.1.15,2013-01-23 10:35:00,
2013-01-23 05:40:00,-11.3,-17.3,30.23,NE,40,3.0,10.0,74,0.00,,,0.00,Wunderground v.1.15,2013-01-23 10:40:00,
2013-01-23 05:45:00,-11.4,-17.1,30.24,North,355,3.0,10.0,75,0.00,,,0.00,Wunderground v.1.15,2013-01-23 10:45:00,
2013-01-23 05:54:00,-11.5,-17.0,30.23,NNE,30,4.0,10.0,76,0.00,,,0.00,Wunderground v.1.15,2013-01-23 10:54:00,
2013-01-23 06:00:00,-11.5,-17.0,30.23,North,5,4.0,4.0,76,0.00,,,0.00,Wunderground v.1.15,2013-01-23 11:00:00,
2013-01-23 06:10:00,-11.9,-17.6,30.23,NNE,29,4.0,4.0,75,0.00,,,0.00,Wunderground v.1.15,2013-01-23 11:10:00,
2013-01-23 06:15:00,-12.0,-17.7,30.24,North,9,4.0,5.0,75,0.00,,,0.00,Wunderground v.1.15,2013-01-23 11:15:00,
2013-01-23 06:24:00,-12.0,-17.7,30.24,North,9,4.0,6.0,75,0.00,,,0.00,Wunderground v.1.15,2013-01-23 11:24:00,
2013-01-23 06:29:00,-12.1,-17.8,30.24,NNE,20,4.0,4.0,75,0.00,,,0.00,Wunderground v.1.15,2013-01-23 11:29:00,
2013-01-23 06:35:00,-12.3,-18.2,30.24,NE,42,4.0,7.0,74,0.00,,,0.00,Wunderground v.1.15,2013-01-23 11:35:00,
2013-01-23 06:44:00,-12.5,-18.4,30.25,NNE,28,4.0,7.0,74,0.00,,,0.00,Wunderground v.1.15,2013-01-23 11:44:00,
2013-01-23 06:49:00,-12.5,-18.4,30.25,NE,55,3.0,3.0,74,0.00,,,0.00,Wunderground v.1.15,2013-01-23 11:49:00,
2013-01-23 07:00:00,-12.7,-18.6,30.25,NNE,29,2.0,3.0,74,0.00,,,0.00,Wunderground v.1.15,2013-01-23 12:00:00,
2013-01-23 07:09:00,-12.7,-18.4,30.25,NW,324,4.0,4.0,75,0.00,,,0.00,Wunderground v.1.15,2013-01-23 12:09:00,
2013-01-23 07:14:00,-12.7,-18.4,30.25,NNE,13,4.0,6.0,75,0.00,,,0.00,Wunderground v.1.15,2013-01-23 12:14:00,
2013-01-23 07:19:00,-12.9,-18.6,30.25,North,350,3.0,3.0,75,0.00,,,0.00,Wunderground v.1.15,2013-01-23 12:19:00,
2013-01-23 07:24:00,-12.9,-18.6,30.25,NNW,336,3.0,4.0,75,0.00,,,0.00,Wunderground v.1.15,2013-01-23 12:24:00,
2013-01-23 07:34:00,-13.0,-18.7,30.25,NNE,20,2.0,8.0,75,0.00,,,0.00,Wunderground v.1.15,2013-01-23 12:34:00,
2013-01-23 07:39:00,-13.0,-18.7,30.26,NNW,336,2.0,8.0,75,0.00,,,0.00,Wunderground v.1.15,2013-01-23 12:39:00,
2013-01-23 07:44:00,-13.0,-18.7,30.26,North,351,3.0,8.0,75,0.00,,,0.00,Wunderground v.1.15,2013-01-23 12:44:00,
2013-01-23 07:49:00,-13.0,-18.7,30.26,NNW,346,3.0,3.0,75,0.00,,,0.00,Wunderground v.1.15,2013-01-23 12:49:00,
2013-01-23 07:54:00,-12.9,-18.6,30.26,North,351,3.0,5.0,75,0.00,,,0.00,Wunderground v.1.15,2013-01-23 12:54:00,
2013-01-23 08:00:00,-12.9,-18.6,30.26,North,350,3.0,3.0,75,0.00,,,0.00,Wunderground v.1.15,2013-01-23 13:00:00,
2013-01-23 08:09:00,-13.0,-18.9,30.26,NNE,13,3.0,3.0,74,0.00,,,0.00,Wunderground v.1.15,2013-01-23 13:09:00,
2013-01-23 08:14:00,-12.7,-18.6,30.26,NNW,346,3.0,3.0,74,0.00,,,0.00,Wunderground v.1.15,2013-01-23 13:14:00,
2013-01-23 08:19:00,-12.7,-18.6,30.26,North,5,3.0,3.0,74,0.00,,,0.00,Wunderground v.1.15,2013-01-23 13:19:00,
2013-01-23 08:24:00,-12.5,-18.4,30.27,NE,43,3.0,4.0,74,0.00,,,0.00,Wunderground v.1.15,2013-01-23 13:24:00,
2013-01-23 08:29:00,-12.5,-18.4,30.26,NNE,22,3.0,3.0,74,0.00,,,0.00,Wunderground v.1.15,2013-01-23 13:29:00,
2013-01-23 08:39:00,-12.3,-18.5,30.26,NE,36,3.0,7.0,73,0.00,,,0.00,Wunderground v.1.15,2013-01-23 13:39:00,
2013-01-23 08:44:00,-12.4,-18.6,30.26,North,9,3.0,7.0,73,0.00,,,0.00,Wunderground v.1.15,2013-01-23 13:44:00,
2013-01-23 08:49:00,-12.1,-18.3,30.26,NNW,338,3.0,7.0,73,0.00,,,0.00,Wunderground v.1.15,2013-01-23 13:49:00,
2013-01-23 08:54:00,-12.0,-18.2,30.26,NNW,333,3.0,7.0,73,0.00,,,0.00,Wunderground v.1.15,2013-01-23 13:54:00,
2013-01-23 09:00:00,-11.9,-18.1,30.27,NNE,26,3.0,3.0,73,0.00,,,0.00,Wunderground v.1.15,2013-01-23 14:00:00,
2013-01-23 09:09:00,-12.0,-18.5,30.27,NE,38,3.0,3.0,72,0.00,,,0.00,Wunderground v.1.15,2013-01-23 14:09:00,
2013-01-23 09:14:00,-11.7,-18.2,30.27,NNE,31,2.0,3.0,72,0.00,,,0.00,Wunderground v.1.15,2013-01-23 14:14:00,
2013-01-23 09:19:00,-11.7,-18.2,30.27,ENE,57,2.0,4.0,72,0.00,,,0.00,Wunderground v.1.15,2013-01-23 14:19:00,
2013-01-23 09:24:00,-11.7,-18.5,30.27,NNE,28,2.0,4.0,71,0.00,,,0.00,Wunderground v.1.15,2013-01-23 14:24:00,
2013-01-23 09:29:00,-11.5,-18.3,30.28,NW,324,2.0,2.0,71,0.00,,,0.00,Wunderground v.1.15,2013-01-23 14:29:00,
2013-01-23 09:34:00,-11.3,-18.4,30.28,NNE,33,2.0,6.0,70,0.00,,,0.00,Wunderground v.1.15,2013-01-23 14:34:00,
2013-01-23 09:44:00,-11.1,-18.5,30.28,NNE,17,3.0,6.0,69,0.00,,,0.00,Wunderground v.1.15,2013-01-23 14:44:00,
2013-01-23 09:49:00,-10.9,-18.3,30.28,NNE,25,3.0,6.0,69,0.00,,,0.00,Wunderground v.1.15,2013-01-23 14:49:00,
2013-01-23 09:54:00,-10.8,-18.4,30.28,NE,42,3.0,6.0,68,0.00,,,0.00,Wunderground v.1.15,2013-01-23 14:54:00,
2013-01-23 10:00:00,-10.7,-18.3,30.28,NE,44,3.0,3.0,68,0.00,,,0.00,Wunderground v.1.15,2013-01-23 15:00:00,
2013-01-23 10:09:00,-10.5,-18.4,30.28,NE,34,3.0,3.0,67,0.00,,,0.00,Wunderground v.1.15,2013-01-23 15:09:00,
2013-01-23 10:14:00,-10.2,-18.2,30.29,NE,44,3.0,5.0,67,0.00,,,0.00,Wunderground v.1.15,2013-01-23 15:14:00,
2013-01-23 10:19:00,-10.4,-18.6,30.29,NE,36,3.0,4.0,66,0.00,,,0.00,Wunderground v.1.15,2013-01-23 15:19:00,
2013-01-23 10:24:00,-10.2,-18.2,30.29,NNE,32,3.0,4.0,67,0.00,,,0.00,Wunderground v.1.15,2013-01-23 15:24:00,
2013-01-23 10:29:00,-9.8,-17.8,30.28,NE,44,2.0,3.0,67,0.00,,,0.00,Wunderground v.1.15,2013-01-23 15:29:00,
2013-01-23 10:34:00,-9.7,-18.0,30.28,ENE,61,2.0,7.0,66,0.00,,,0.00,Wunderground v.1.15,2013-01-23 15:34:00,
2013-01-23 10:39:00,-9.7,-18.0,30.29,ENE,58,3.0,7.0,66,0.00,,,0.00,Wunderground v.1.15,2013-01-23 15:39:00,
2013-01-23 10:49:00,-8.8,-17.1,30.29,NNE,22,2.0,7.0,66,0.00,,,0.00,Wunderground v.1.15,2013-01-23 15:49:00,
2013-01-23 10:54:00,-8.9,-17.5,30.28,NNE,33,3.0,7.0,65,0.00,,,0.00,Wunderground v.1.15,2013-01-23 15:54:00,
2013-01-23 10:59:00,-8.3,-16.9,30.28,NNE,32,1.0,2.0,65,0.00,,,0.00,Wunderground v.1.15,2013-01-23 15:59:00,
2013-01-23 11:09:00,-8.1,-16.7,30.28,NE,41,3.0,4.0,65,0.00,,,0.00,Wunderground v.1.15,2013-01-23 16:09:00,
2013-01-23 11:19:00,-7.2,-16.2,30.27,NNE,30,2.0,2.0,64,0.00,,,0.00,Wunderground v.1.15,2013-01-23 16:19:00,
2013-01-23 11:24:00,-6.4,-15.7,30.27,WNW,289,1.0,2.0,63,0.00,,,0.00,Wunderground v.1.15,2013-01-23 16:24:00,
2013-01-23 11:29:00,-6.6,-16.6,30.27,WSW,253,1.0,1.0,61,0.00,,,0.00,Wunderground v.1.15,2013-01-23 16:29:00,
2013-01-23 11:34:00,-6.3,-15.9,30.27,SE,140,1.0,3.0,62,0.00,,,0.00,Wunderground v.1.15,2013-01-23 16:34:00,
2013-01-23 11:39:00,-6.3,-15.9,30.26,NW,321,1.0,6.0,62,0.00,,,0.00,Wunderground v.1.15,2013-01-23 16:39:00,
2013-01-23 11:44:00,-6.4,-15.7,30.26,North,350,3.0,6.0,63,0.00,,,0.00,Wunderground v.1.15,2013-01-23 16:44:00,
2013-01-23 11:54:00,-6.6,-15.6,30.26,NE,38,2.0,6.0,64,0.00,,,0.00,Wunderground v.1.15,2013-01-23 16:54:00,
2013-01-23 11:59:00,-5.7,-15.7,30.26,WNW,303,1.0,1.0,61,0.00,,,0.00,Wunderground v.1.15,2013-01-23 16:59:00,
2013-01-23 12:09:00,-5.8,-15.8,30.26,WNW,302,3.0,3.0,61,0.00,,,0.00,Wunderground v.1.15,2013-01-23 17:09:00,
2013-01-23 12:14:00,-6.1,-16.4,30.25,WNW,288,3.0,3.0,60,0.00,,,0.00,Wunderground v.1.15,2013-01-23 17:14:00,
2013-01-23 12:20:00,-6.0,-16.3,30.25,WNW,303,2.0,2.0,60,0.00,,,0.00,Wunderground v.1.15,2013-01-23 17:20:00,
2013-01-23 12:25:00,-5.7,-15.7,30.25,ENE,58,2.0,2.0,61,0.00,,,0.00,Wunderground v.1.15,2013-01-23 17:25:00,
2013-01-23 12:34:00,-5.6,-15.6,30.24,North,5,2.0,7.0,61,0.00,,,0.00,Wunderground v.1.15,2013-01-23 17:34:00,
2013-01-23 12:39:00,-4.9,-14.3,30.24,NNE,24,2.0,7.0,63,0.00,,,0.00,Wunderground v.1.15,2013-01-23 17:39:00,
2013-01-23 12:44:00,-4.6,-14.3,30.23,NNE,12,3.0,7.0,62,0.00,,,0.00,Wunderground v.1.15,2013-01-23 17:44:00,
2013-01-23 12:49:00,-4.9,-14.9,30.23,North,355,3.0,7.0,61,0.00,,,0.00,Wunderground v.1.15,2013-01-23 17:49:00,
2013-01-23 12:54:00,-5.2,-15.2,30.23,NE,54,4.0,7.0,61,0.00,,,0.00,Wunderground v.1.15,2013-01-23 17:54:00,
2013-01-23 13:00:00,-5.2,-14.9,30.23,NE,44,4.0,4.0,62,0.00,,,0.00,Wunderground v.1.15,2013-01-23 18:00:00,
2013-01-23 13:09:00,-4.4,-14.1,30.23,North,360,3.0,3.0,62,0.00,,,0.00,Wunderground v.1.15,2013-01-23 18:09:00,
2013-01-23 13:14:00,-3.9,-14.0,30.23,North,5,3.0,3.0,61,0.00,,,0.00,Wunderground v.1.15,2013-01-23 18:14:00,
2013-01-23 13:19:00,-3.7,-13.8,30.23,NNW,327,2.0,3.0,61,0.00,,,0.00,Wunderground v.1.15,2013-01-23 18:19:00,
2013-01-23 13:29:00,-3.0,-13.5,30.22,NNW,343,4.0,4.0,60,0.00,,,0.00,Wunderground v.1.15,2013-01-23 18:29:00,
2013-01-23 13:34:00,-3.1,-13.6,30.22,NNE,30,4.0,10.0,60,0.00,,,0.00,Wunderground v.1.15,2013-01-23 18:34:00,
2013-01-23 13:39:00,-2.9,-13.0,30.22,North,9,4.0,10.0,61,0.00,,,0.00,Wunderground v.1.15,2013-01-23 18:39:00,
2013-01-23 13:44:00,-2.7,-13.2,30.22,North,360,3.0,10.0,60,0.00,,,0.00,Wunderground v.1.15,2013-01-23 18:44:00,
2013-01-23 13:49:00,-2.2,-12.7,30.22,NNE,19,2.0,2.0,60,0.00,,,0.00,Wunderground v.1.15,2013-01-23 18:49:00,
2013-01-23 14:00:00,-2.3,-12.8,30.22,North,355,4.0,6.0,60,0.00,,,0.00,Wunderground v.1.15,2013-01-23 19:00:00,
2013-01-23 14:09:00,-2.2,-10.2,30.22,NNE,14,4.0,4.0,68,0.00,,,0.00,Wunderground v.1.15,2013-01-23 19:09:00,
2013-01-23 14:14:00,-2.3,-13.5,30.22,West,266,3.0,4.0,58,0.00,,,0.00,Wunderground v.1.15,2013-01-23 19:14:00,
2013-01-23 14:19:00,-1.9,-12.8,30.22,NNW,348,3.0,3.0,59,0.00,,,0.00,Wunderground v.1.15,2013-01-23 19:19:00,
2013-01-23 14:24:00,-1.8,-12.7,30.22,North,5,3.0,4.0,59,0.00,,,0.00,Wunderground v.1.15,2013-01-23 19:24:00,
2013-01-23 14:34:00,-1.4,-12.6,30.22,NE,38,3.0,5.0,58,0.00,,,0.00,Wunderground v.1.15,2013-01-23 19:34:00,
2013-01-23 14:39:00,-1.3,-12.5,30.22,North,355,3.0,8.0,58,0.00,,,0.00,Wunderground v.1.15,2013-01-23 19:39:00,
2013-01-23 14:44:00,-1.4,-13.0,30.22,NE,41,4.0,8.0,57,0.00,,,0.00,Wunderground v.1.15,2013-01-23 19:44:00,
2013-01-23 14:49:00,-1.3,-12.5,30.22,NW,323,4.0,4.0,58,0.00,,,0.00,Wunderground v.1.15,2013-01-23 19:49:00,
2013-01-23 14:54:00,-1.3,-12.9,30.22,NNE,28,3.0,8.0,57,0.00,,,0.00,Wunderground v.1.15,2013-01-23 19:54:00,
2013-01-23 15:00:00,-1.3,-12.9,30.22,North,355,4.0,4.0,57,0.00,,,0.00,Wunderground v.1.15,2013-01-23 20:00:00,
2013-01-23 15:09:00,-1.2,-12.8,30.21,North,360,4.0,4.0,57,0.00,,,0.00,Wunderground v.1.15,2013-01-23 20:09:00,
2013-01-23 15:14:00,-1.2,-13.1,30.22,NE,45,4.0,4.0,56,0.00,,,0.00,Wunderground v.1.15,2013-01-23 20:14:00,
2013-01-23 15:19:00,-1.1,-13.0,30.22,North,350,4.0,6.0,56,0.00,,,0.00,Wunderground v.1.15,2013-01-23 20:19:00,
2013-01-23 15:24:00,-1.2,-13.1,30.21,NNW,329,4.0,6.0,56,0.00,,,0.00,Wunderground v.1.15,2013-01-23 20:24:00,
2013-01-23 15:29:00,-1.7,-14.0,30.21,NW,314,4.0,7.0,55,0.00,,,0.00,Wunderground v.1.15,2013-01-23 20:29:00,
2013-01-23 15:39:00,-2.1,-14.0,30.21,NNE,22,3.0,9.0,56,0.00,,,0.00,Wunderground v.1.15,2013-01-23 20:39:00,
2013-01-23 15:44:00,-1.9,-13.1,30.21,NW,321,3.0,9.0,58,0.00,,,0.00,Wunderground v.1.15,2013-01-23 20:44:00,
2013-01-23 15:49:00,-2.0,-13.5,30.22,North,360,3.0,3.0,57,0.00,,,0.00,Wunderground v.1.15,2013-01-23 20:49:00,
2013-01-23 15:54:00,-1.7,-12.6,30.22,North,5,2.0,9.0,59,0.00,,,0.00,Wunderground v.1.15,2013-01-23 20:54:00,
2013-01-23 15:59:00,-1.7,-12.9,30.21,NNW,329,3.0,3.0,58,0.00,,,0.00,Wunderground v.1.15,2013-01-23 20:59:00,
2013-01-23 16:09:00,-1.8,-12.7,30.21,NW,313,2.0,2.0,59,0.00,,,0.00,Wunderground v.1.15,2013-01-23 21:09:00,
2013-01-23 16:14:00,-1.8,-12.7,30.21,NW,316,1.0,2.0,59,0.00,,,0.00,Wunderground v.1.15,2013-01-23 21:14:00,
2013-01-23 16:19:00,-1.8,-12.3,30.22,NNW,335,2.0,2.0,60,0.00,,,0.00,Wunderground v.1.15,2013-01-23 21:19:00,
2013-01-23 16:24:00,-1.8,-12.3,30.21,NW,326,2.0,3.0,60,0.00,,,0.00,Wunderground v.1.15,2013-01-23 21:24:00,
2013-01-23 16:29:00,-1.9,-12.4,30.21,North,355,3.0,3.0,60,0.00,,,0.00,Wunderground v.1.15,2013-01-23 21:29:00,
2013-01-23 16:34:00,-1.8,-11.7,30.22,North,350,3.0,8.0,62,0.00,,,0.00,Wunderground v.1.15,2013-01-23 21:34:00,
2013-01-23 16:44:00,-2.1,-12.6,30.22,NW,320,1.0,8.0,60,0.00,,,0.00,Wunderground v.1.15,2013-01-23 21:44:00,
2013-01-23 16:49:00,-2.2,-13.0,30.22,NW,321,2.0,8.0,59,0.00,,,0.00,Wunderground v.1.15,2013-01-23 21:49:00,
2013-01-23 16:54:00,-2.3,-12.8,30.22,NW,326,3.0,8.0,60,0.00,,,0.00,Wunderground v.1.15,2013-01-23 21:54:00,
2013-01-23 16:59:00,-2.4,-12.9,30.22,NW,325,2.0,2.0,60,0.00,,,0.00,Wunderground v.1.15,2013-01-23 21:59:00,
2013-01-23 17:09:00,-2.6,-12.7,30.22,NW,323,1.0,1.0,61,0.00,,,0.00,Wunderground v.1.15,2013-01-23 22:09:00,
2013-01-23 17:14:00,-2.7,-12.5,30.22,NW,323,0.0,1.0,62,0.00,,,0.00,Wunderground v.1.15,2013-01-23 22:14:00,
2013-01-23 17:19:00,-2.8,-12.6,30.22,NW,323,0.0,0.0,62,0.00,,,0.00,Wunderground v.1.15,2013-01-23 22:19:00,
2013-01-23 17:24:00,-2.9,-12.7,30.22,NW,323,0.0,0.0,62,0.00,,,0.00,Wunderground v.1.15,2013-01-23 22:24:00,
2013-01-23 17:29:00,-3.0,-12.5,30.22,NW,323,0.0,0.0,63,0.00,,,0.00,Wunderground v.1.15,2013-01-23 22:29:00,
2013-01-23 17:34:00,-3.2,-12.7,30.22,NW,323,0.0,7.0,63,0.00,,,0.00,Wunderground v.1.15,2013-01-23 22:34:00,
2013-01-23 17:39:00,-3.2,-12.7,30.22,NW,323,0.0,7.0,63,0.00,,,0.00,Wunderground v.1.15,2013-01-23 22:39:00,
2013-01-23 17:49:00,-3.3,-12.8,30.22,NW,323,0.0,7.0,63,0.00,,,0.00,Wunderground v.1.15,2013-01-23 22:49:00,
2013-01-23 17:54:00,-3.3,-12.5,30.22,NW,323,0.0,7.0,64,0.00,,,0.00,Wunderground v.1.15,2013-01-23 22:54:00,
2013-01-23 17:59:00,-3.3,-12.1,30.22,NNW,348,0.0,0.0,65,0.00,,,0.00,Wunderground v.1.15,2013-01-23 22:59:00,
2013-01-23 18:09:00,-3.4,-12.2,30.22,NNW,348,1.0,1.0,65,0.00,,,0.00,Wunderground v.1.15,2013-01-23 23:09:00,
2013-01-23 18:14:00,-3.6,-12.1,30.22,NNW,348,0.0,1.0,66,0.00,,,0.00,Wunderground v.1.15,2013-01-23 23:14:00,
2013-01-23 18:24:00,-3.9,-12.4,30.22,NNW,348,0.0,0.0,66,0.00,,,0.00,Wunderground v.1.15,2013-01-23 23:24:00,
2013-01-23 18:29:00,-4.1,-12.3,30.22,NNW,348,0.0,0.0,67,0.00,,,0.00,Wunderground v.1.15,2013-01-23 23:29:00,
2013-01-23 18:34:00,-4.2,-12.4,30.22,NNW,348,0.0,3.0,67,0.00,,,0.00,Wunderground v.1.15,2013-01-23 23:34:00,
2013-01-23 18:39:00,-4.3,-12.5,30.22,NNW,348,0.0,3.0,67,0.00,,,0.00,Wunderground v.1.15,2013-01-23 23:39:00,
2013-01-23 18:44:00,-4.2,-12.1,30.22,NNW,348,0.0,3.0,68,0.00,,,0.00,Wunderground v.1.15,2013-01-23 23:44:00,
2013-01-23 18:49:00,-4.1,-12.0,30.22,NNW,348,0.0,3.0,68,0.00,,,0.00,Wunderground v.1.15,2013-01-23 23:49:00,
2013-01-23 18:54:00,-4.1,-12.0,30.22,NNW,348,0.0,3.0,68,0.00,,,0.00,Wunderground v.1.15,2013-01-23 23:54:00,
2013-01-23 19:00:00,-4.1,-11.7,30.22,NNW,348,0.0,0.0,69,0.00,,,0.00,Wunderground v.1.15,2013-01-24 00:00:00,
2013-01-23 19:09:00,-4.1,-11.7,30.22,NNW,348,0.0,0.0,69,0.00,,,0.00,Wunderground v.1.15,2013-01-24 00:09:00,
2013-01-23 19:14:00,-4.1,-12.0,30.21,NNW,348,0.0,0.0,68,0.00,,,0.00,Wunderground v.1.15,2013-01-24 00:14:00,
2013-01-23 19:19:00,-4.2,-12.1,30.22,NNW,348,0.0,0.0,68,0.00,,,0.00,Wunderground v.1.15,2013-01-24 00:19:00,
2013-01-23 19:24:00,-4.3,-12.2,30.22,NNW,348,0.0,0.0,68,0.00,,,0.00,Wunderground v.1.15,2013-01-24 00:24:00,
2013-01-23 19:29:00,-4.4,-11.7,30.22,NNW,348,0.0,0.0,70,0.00,,,0.00,Wunderground v.1.15,2013-01-24 00:29:00,
2013-01-23 19:34:00,-4.5,-11.5,30.22,NNW,348,0.0,1.0,71,0.00,,,0.00,Wunderground v.1.15,2013-01-24 00:34:00,
2013-01-23 19:39:00,-4.5,-11.2,30.21,NNW,348,0.0,1.0,72,0.00,,,0.00,Wunderground v.1.15,2013-01-24 00:39:00,
2013-01-23 19:44:00,-4.7,-11.4,30.21,NNW,348,0.0,1.0,72,0.00,,,0.00,Wunderground v.1.15,2013-01-24 00:44:00,
2013-01-23 19:54:00,-4.7,-11.2,30.22,NNW,348,0.0,1.0,73,0.00,,,0.00,Wunderground v.1.15,2013-01-24 00:54:00,
2013-01-23 20:00:00,-4.6,-10.8,30.22,NNW,348,0.0,0.0,74,0.00,,,0.00,Wunderground v.1.15,2013-01-24 01:00:00,
2013-01-23 20:09:00,-4.6,-10.8,30.21,NNW,348,0.0,0.0,74,0.00,,,0.00,Wunderground v.1.15,2013-01-24 01:09:00,
2013-01-23 20:14:00,-4.6,-10.8,30.21,NNW,348,0.0,0.0,74,0.00,,,0.00,Wunderground v.1.15,2013-01-24 01:14:00,
2013-01-23 20:19:00,-4.7,-10.9,30.21,NNW,348,0.0,0.0,74,0.00,,,0.00,Wunderground v.1.15,2013-01-24 01:19:00,
2013-01-23 20:29:00,-4.9,-10.8,30.21,NNW,348,0.0,0.0,75,0.00,,,0.00,Wunderground v.1.15,2013-01-24 01:29:00,
2013-01-23 20:34:00,-5.0,-10.9,30.21,NNW,348,0.0,2.0,75,0.00,,,0.00,Wunderground v.1.15,2013-01-24 01:34:00,
2013-01-23 20:39:00,-4.9,-10.5,30.20,NNW,348,0.0,2.0,76,0.00,,,0.00,Wunderground v.1.15,2013-01-24 01:39:00,
2013-01-23 20:44:00,-4.9,-10.5,30.20,NNW,348,0.0,2.0,76,0.00,,,0.00,Wunderground v.1.15,2013-01-24 01:44:00,
2013-01-23 20:49:00,-5.1,-10.7,30.20,NNW,348,0.0,2.0,76,0.00,,,0.00,Wunderground v.1.15,2013-01-24 01:49:00,
2013-01-23 21:00:00,-5.2,-10.6,30.21,NNW,348,0.0,0.0,77,0.00,,,0.00,Wunderground v.1.15,2013-01-24 02:00:00,
2013-01-23 21:09:00,-5.1,-10.5,30.21,NNW,348,0.0,0.0,77,0.00,,,0.00,Wunderground v.1.15,2013-01-24 02:09:00,
2013-01-23 21:14:00,-5.1,-10.2,30.20,NNW,348,0.0,0.0,78,0.00,,,0.00,Wunderground v.1.15,2013-01-24 02:14:00,
2013-01-23 21:19:00,-5.3,-10.4,30.21,NNW,348,0.0,0.0,78,0.00,,,0.00,Wunderground v.1.15,2013-01-24 02:19:00,
2013-01-23 21:24:00,-5.3,-10.4,30.21,NNW,348,0.0,0.0,78,0.00,,,0.00,Wunderground v.1.15,2013-01-24 02:24:00,
2013-01-23 21:34:00,-5.4,-10.2,30.21,NNW,348,0.0,0.0,79,0.00,,,0.00,Wunderground v.1.15,2013-01-24 02:34:00,
2013-01-23 21:39:00,-5.4,-10.2,30.21,NNW,348,0.0,0.0,79,0.00,,,0.00,Wunderground v.1.15,2013-01-24 02:39:00,
2013-01-23 21:44:00,-5.4,-10.2,30.21,NNW,348,0.0,0.0,79,0.00,,,0.00,Wunderground v.1.15,2013-01-24 02:44:00,
2013-01-23 21:49:00,-5.5,-10.3,30.21,NNW,348,0.0,0.0,79,0.00,,,0.00,Wunderground v.1.15,2013-01-24 02:49:00,
2013-01-23 21:54:00,-5.4,-10.2,30.21,NNW,348,0.0,0.0,79,0.00,,,0.00,Wunderground v.1.15,2013-01-24 02:54:00,
2013-01-23 21:59:00,-5.3,-9.9,30.21,NNW,348,0.0,0.0,80,0.00,,,0.00,Wunderground v.1.15,2013-01-24 02:59:00,
2013-01-23 22:09:00,-5.2,-10.0,30.21,NNW,348,0.0,0.0,79,0.00,,,0.00,Wunderground v.1.15,2013-01-24 03:09:00,
2013-01-23 22:14:00,-5.3,-10.1,30.21,NNW,348,0.0,0.0,79,0.00,,,0.00,Wunderground v.1.15,2013-01-24 03:14:00,
2013-01-23 22:19:00,-5.4,-10.0,30.21,NNW,348,0.0,0.0,80,0.00,,,0.00,Wunderground v.1.15,2013-01-24 03:19:00,
2013-01-23 22:24:00,-5.5,-10.1,30.21,NNW,348,0.0,1.0,80,0.00,,,0.00,Wunderground v.1.15,2013-01-24 03:24:00,
2013-01-23 22:29:00,-5.7,-10.5,30.21,NNW,348,1.0,1.0,79,0.00,,,0.00,Wunderground v.1.15,2013-01-24 03:29:00,
2013-01-23 22:39:00,-5.9,-10.7,30.21,NNW,348,0.0,1.0,79,0.00,,,0.00,Wunderground v.1.15,2013-01-24 03:39:00,
2013-01-23 22:44:00,-5.9,-10.7,30.21,NNW,348,0.0,1.0,79,0.00,,,0.00,Wunderground v.1.15,2013-01-24 03:44:00,
2013-01-23 22:49:00,-6.0,-10.8,30.21,NNW,348,0.0,1.0,79,0.00,,,0.00,Wunderground v.1.15,2013-01-24 03:49:00,
2013-01-23 22:54:00,-6.1,-11.2,30.21,NNW,348,0.0,1.0,78,0.00,,,0.00,Wunderground v.1.15,2013-01-24 03:54:00,
2013-01-23 22:59:00,-6.1,-11.2,30.21,NNW,348,0.0,0.0,78,0.00,,,0.00,Wunderground v.1.15,2013-01-24 03:59:00,
2013-01-23 23:09:00,-6.3,-11.1,30.21,NNW,348,0.0,0.0,79,0.00,,,0.00,Wunderground v.1.15,2013-01-24 04:09:00,
2013-01-23 23:14:00,-6.3,-10.9,30.21,NNW,348,0.0,0.0,80,0.00,,,0.00,Wunderground v.1.15,2013-01-24 04:14:00,
2013-01-23 23:19:00,-6.3,-10.9,30.21,NNW,348,0.0,0.0,80,0.00,,,0.00,Wunderground v.1.15,2013-01-24 04:19:00,
2013-01-23 23:24:00,-6.4,-11.0,30.21,NNW,348,0.0,0.0,80,0.00,,,0.00,Wunderground v.1.15,2013-01-24 04:24:00,
2013-01-23 23:29:00,-6.4,-11.0,30.21,NNW,348,0.0,0.0,80,0.00,,,0.00,Wunderground v.1.15,2013-01-24 04:29:00,
2013-01-23 23:34:00,-6.5,-11.1,30.21,NNW,348,0.0,3.0,80,0.00,,,0.00,Wunderground v.1.15,2013-01-24 04:34:00,
2013-01-23 23:44:00,-6.6,-10.9,30.22,NNW,348,1.0,3.0,81,0.00,,,0.00,Wunderground v.1.15,2013-01-24 04:44:00,
2013-01-23 23:49:00,-6.7,-11.0,30.21,NNW,348,1.0,1.0,81,0.00,,,0.00,Wunderground v.1.15,2013-01-24 04:49:00,
2013-01-23 23:54:00,-6.7,-11.0,30.22,NNW,348,1.0,2.0,81,0.00,,,0.00,Wunderground v.1.15,2013-01-24 04:54:00,
2013-01-23 23:59:00,-6.8,-11.1,30.21,ENE,71,1.0,3.0,81,0.00,,,0.00,Wunderground v.1.15,2013-01-24 04:59:00,